createdAt,value
2023-03-06T00:01:05.928Z,0.70
2023-03-06T00:06:08.649Z,0.60
2023-03-06T00:11:14.699Z,0.60
2023-03-06T00:16:16.509Z,0.70
2023-03-06T00:21:18.400Z,0.60
2023-03-06T00:26:20.119Z,0.60
2023-03-06T00:31:23.110Z,0.60
2023-03-06T00:36:24.926Z,0.60
2023-03-06T00:41:27.124Z,0.70
2023-03-06T00:46:28.903Z,0.70
2023-03-06T00:51:30.976Z,0.70
2023-03-06T00:56:32.807Z,0.70
2023-03-06T01:01:34.662Z,0.70
2023-03-06T01:06:36.819Z,0.70
2023-03-06T01:11:38.682Z,0.70
2023-03-06T01:16:40.566Z,0.70
2023-03-06T01:21:42.421Z,0.60
2023-03-06T01:26:44.148Z,0.60
2023-03-06T01:31:45.990Z,0.70
2023-03-06T01:36:47.982Z,0.50
2023-03-06T01:41:49.711Z,0.60
2023-03-06T01:46:51.430Z,0.60
2023-03-06T01:51:57.724Z,0.70
2023-03-06T01:57:02.218Z,0.60
2023-03-06T02:02:06.311Z,0.70
2023-03-06T02:07:09.128Z,0.70
2023-03-06T02:12:18.973Z,0.80
2023-03-06T02:17:22.043Z,0.70
2023-03-06T02:22:29.126Z,0.70
2023-03-06T02:27:31.699Z,0.70
2023-03-06T02:32:33.575Z,0.70
2023-03-06T02:37:35.744Z,0.70
2023-03-06T02:42:37.556Z,0.70
2023-03-06T02:47:39.367Z,0.70
2023-03-06T02:52:41.144Z,0.70
2023-03-06T02:57:42.987Z,0.70
2023-03-06T03:02:45.559Z,0.50
2023-03-06T03:07:47.471Z,0.60
2023-03-06T03:12:50.044Z,0.50
2023-03-06T03:17:52.791Z,0.50
2023-03-06T03:22:55.738Z,0.50
2023-03-06T03:27:57.555Z,0.50
2023-03-06T03:33:00.719Z,0.60
2023-03-06T03:38:02.901Z,0.60
2023-03-06T03:43:04.915Z,0.50
2023-03-06T03:48:07.961Z,0.50
2023-03-06T03:53:09.944Z,0.50
2023-03-06T03:58:12.756Z,0.50
2023-03-06T04:03:15.035Z,0.50
2023-03-06T04:08:20.314Z,0.50
2023-03-06T04:13:24.295Z,0.40
2023-03-06T04:18:28.574Z,0.50
2023-03-06T04:23:34.930Z,0.40
2023-03-06T04:28:37.993Z,0.40
2023-03-06T04:33:40.221Z,0.40
2023-03-06T04:38:43.582Z,0.40
2023-03-06T04:43:47.207Z,0.40
2023-03-06T04:48:49.082Z,0.40
2023-03-06T04:53:51.004Z,0.30
2023-03-06T04:58:52.794Z,0.30
2023-03-06T05:03:54.567Z,0.30
2023-03-06T05:08:56.394Z,0.30
2023-03-06T05:13:58.202Z,0.30
2023-03-06T05:19:00.029Z,0.20
2023-03-06T05:24:01.767Z,0.20
2023-03-06T05:29:03.554Z,0.20
2023-03-06T05:34:05.434Z,0.30
2023-03-06T05:39:07.282Z,0.10
2023-03-06T05:44:09.050Z,0.10
2023-03-06T05:49:10.916Z,0.10
2023-03-06T05:54:12.688Z,0.10
2023-03-06T05:59:15.618Z,0.10
2023-03-06T06:04:17.440Z,0.00
2023-03-06T06:09:19.183Z,0.10
2023-03-06T06:14:21.386Z,0.20
2023-03-06T06:19:23.432Z,0.20
2023-03-06T06:24:26.415Z,0.20
2023-03-06T06:29:29.572Z,0.20
2023-03-06T06:34:31.964Z,0.30
2023-03-06T06:39:33.778Z,0.40
2023-03-06T06:44:36.089Z,0.50
2023-03-06T06:49:39.336Z,0.50
2023-03-06T06:54:41.076Z,0.50
2023-03-06T06:59:42.908Z,0.70
2023-03-06T07:05:00.757Z,0.70
2023-03-06T07:10:11.140Z,0.80
2023-03-06T07:15:15.695Z,0.80
2023-03-06T07:20:18.122Z,0.80
2023-03-06T07:25:20.827Z,0.90
2023-03-06T07:30:23.876Z,1.00
2023-03-06T07:35:26.377Z,1.10
2023-03-06T07:40:28.439Z,1.10
2023-03-06T07:45:30.347Z,1.20
2023-03-06T07:50:33.080Z,1.30
2023-03-06T07:55:34.864Z,1.50
2023-03-06T08:00:36.619Z,1.60
2023-03-06T08:05:40.039Z,1.60
2023-03-06T08:10:48.002Z,1.70
2023-03-06T08:15:49.831Z,1.80
2023-03-06T08:21:00.419Z,1.80
2023-03-06T08:26:05.666Z,1.80
2023-03-06T08:31:11.465Z,1.90
2023-03-06T08:36:13.287Z,2.20
2023-03-06T08:41:15.093Z,2.30
2023-03-06T08:46:18.797Z,2.50
2023-03-06T08:51:22.444Z,2.60
2023-03-06T08:56:27.119Z,2.70
2023-03-06T09:01:31.925Z,2.70
2023-03-06T09:06:36.890Z,2.80
2023-03-06T09:11:39.005Z,2.80
2023-03-06T09:16:41.124Z,2.90
2023-03-06T09:21:43.127Z,3.10
2023-03-06T09:26:47.028Z,3.10
2023-03-06T09:31:49.374Z,3.30
2023-03-06T09:36:56.926Z,3.50
2023-03-06T09:41:59.231Z,3.60
2023-03-06T09:47:00.950Z,3.60
2023-03-06T09:52:05.790Z,3.80
2023-03-06T09:57:20.035Z,3.80
2023-03-06T10:02:38.320Z,3.90
2023-03-06T10:07:50.063Z,4.00
2023-03-06T10:13:00.944Z,4.00
2023-03-06T10:18:04.380Z,4.00
2023-03-06T10:23:27.924Z,3.90
2023-03-06T10:28:36.291Z,3.90
2023-03-06T10:33:56.679Z,3.80
2023-03-06T10:38:59.813Z,3.60
2023-03-06T10:44:04.749Z,3.70
2023-03-06T10:49:26.144Z,3.60
2023-03-06T10:54:30.751Z,3.50
2023-03-06T10:59:32.562Z,3.60
2023-03-06T11:04:36.350Z,3.70
2023-03-06T11:09:39.743Z,4.00
2023-03-06T11:14:41.839Z,4.00
2023-03-06T11:19:43.606Z,3.90
2023-03-06T11:24:50.316Z,3.80
2023-03-06T11:29:55.003Z,3.80
2023-03-06T11:35:02.831Z,3.80
2023-03-06T11:40:10.614Z,3.80
2023-03-06T11:45:32.687Z,3.80
2023-03-06T11:50:55.150Z,3.70
2023-03-06T11:56:18.800Z,3.50
2023-03-06T12:01:41.015Z,3.60
2023-03-06T12:07:09.906Z,3.50
2023-03-06T12:12:37.896Z,3.50
2023-03-06T12:18:03.726Z,3.30
2023-03-06T12:23:18.117Z,3.30
2023-03-06T12:28:29.365Z,3.50
2023-03-06T12:34:26.155Z,3.70
2023-03-06T12:39:53.224Z,3.70
2023-03-06T12:45:22.482Z,3.70
2023-03-06T12:50:34.033Z,3.60
2023-03-06T12:55:54.751Z,3.60
2023-03-06T13:01:24.110Z,3.50
2023-03-06T13:06:51.116Z,3.40
2023-03-06T13:12:11.172Z,3.40
2023-03-06T13:17:32.727Z,3.50
2023-03-06T13:22:34.666Z,3.50
2023-03-06T13:27:54.986Z,3.60
2023-03-06T13:32:56.895Z,3.60
2023-03-06T13:37:59.877Z,3.60
2023-03-06T13:43:18.695Z,3.70
2023-03-06T13:48:43.582Z,3.70
2023-03-06T13:54:21.055Z,3.80
2023-03-06T14:00:08.744Z,4.10
2023-03-06T14:05:14.315Z,4.20
2023-03-06T14:10:24.592Z,4.20
2023-03-06T14:15:44.406Z,4.30
2023-03-06T14:20:53.737Z,4.40
2023-03-06T14:25:58.890Z,4.40
2023-03-06T14:31:04.179Z,4.40
2023-03-06T14:36:10.143Z,4.30
2023-03-06T14:41:13.876Z,4.20
2023-03-06T14:46:21.897Z,4.10
2023-03-06T14:51:25.298Z,4.00
2023-03-06T14:56:27.825Z,4.00
2023-03-06T15:01:46.824Z,3.70
2023-03-06T15:06:48.940Z,3.30
2023-03-06T15:12:02.756Z,3.10
2023-03-06T15:17:28.472Z,2.90
2023-03-06T15:22:38.003Z,2.80
2023-03-06T15:27:40.039Z,2.70
2023-03-06T15:32:42.871Z,2.70
2023-03-06T15:37:45.771Z,2.60
2023-03-06T15:42:49.926Z,2.50
2023-03-06T15:47:54.443Z,2.40
2023-03-06T15:52:56.263Z,2.30
2023-03-06T15:58:00.906Z,2.20
2023-03-06T16:03:03.451Z,2.20
2023-03-06T16:08:05.727Z,2.20
2023-03-06T16:13:12.778Z,2.20
2023-03-06T16:18:14.996Z,2.20
2023-03-06T16:23:16.771Z,2.10
2023-03-06T16:28:18.593Z,2.10
2023-03-06T16:33:20.540Z,2.10
2023-03-06T16:38:22.311Z,2.00
2023-03-06T16:43:24.326Z,2.00
2023-03-06T16:48:26.107Z,2.00
2023-03-06T16:53:27.970Z,1.90
2023-03-06T16:58:29.738Z,1.90
2023-03-06T17:03:31.469Z,1.90
2023-03-06T17:08:33.257Z,1.80
2023-03-06T17:13:35.220Z,1.80
2023-03-06T17:18:37.079Z,1.70
2023-03-06T17:23:38.843Z,1.70
2023-03-06T17:28:41.708Z,1.70
2023-03-06T17:33:43.929Z,1.70
2023-03-06T17:38:46.253Z,1.60
2023-03-06T17:43:47.994Z,1.60
2023-03-06T17:48:49.763Z,1.50
2023-03-06T17:53:52.445Z,1.50
2023-03-06T17:58:54.396Z,1.40
2023-03-06T18:03:56.981Z,1.40
2023-03-06T18:08:59.075Z,1.40
2023-03-06T18:14:00.828Z,1.40
2023-03-06T18:19:02.651Z,1.40
2023-03-06T18:24:04.579Z,1.40
2023-03-06T18:29:06.397Z,1.40
2023-03-06T18:34:14.232Z,1.40
2023-03-06T18:39:16.105Z,1.40
2023-03-06T18:44:18.831Z,1.30
2023-03-06T18:49:20.852Z,1.30
2023-03-06T18:54:24.343Z,1.30
2023-03-06T18:59:26.198Z,1.30
2023-03-06T19:04:28.384Z,1.30
2023-03-06T19:09:30.134Z,1.30
2023-03-06T19:14:32.027Z,1.40
2023-03-06T19:19:33.890Z,1.30
2023-03-06T19:24:35.743Z,1.30
2023-03-06T19:29:38.499Z,1.40
2023-03-06T19:34:40.348Z,1.30
2023-03-06T19:39:43.218Z,1.30
2023-03-06T19:44:45.086Z,1.20
2023-03-06T19:49:46.836Z,1.30
2023-03-06T19:54:48.571Z,1.30
2023-03-06T19:59:53.730Z,1.30
2023-03-06T20:04:55.573Z,1.30
2023-03-06T20:10:00.662Z,1.40
2023-03-06T20:15:03.618Z,1.30
2023-03-06T20:20:05.844Z,1.30
2023-03-06T20:25:08.002Z,1.30
2023-03-06T20:30:10.418Z,1.30
2023-03-06T20:35:12.683Z,1.30
2023-03-06T20:40:14.479Z,1.30
2023-03-06T20:45:16.452Z,1.30
2023-03-06T20:50:18.345Z,1.30
2023-03-06T20:55:20.122Z,1.30
2023-03-06T21:00:21.996Z,1.30
2023-03-06T21:05:23.744Z,1.20
2023-03-06T21:10:25.962Z,1.20
2023-03-06T21:15:29.980Z,1.20
2023-03-06T21:20:32.479Z,1.30
2023-03-06T21:25:34.545Z,1.30
2023-03-06T21:30:36.293Z,1.30
2023-03-06T21:35:40.070Z,1.30
2023-03-06T21:40:42.634Z,1.30
2023-03-06T21:45:46.244Z,1.30
2023-03-06T21:50:48.372Z,1.30
2023-03-06T21:55:50.215Z,1.40
2023-03-06T22:00:52.017Z,1.30
2023-03-06T22:05:56.392Z,1.30
2023-03-06T22:10:58.232Z,1.30
2023-03-06T22:15:59.960Z,1.30
2023-03-06T22:21:08.274Z,1.30
2023-03-06T22:26:12.755Z,1.30
2023-03-06T22:31:17.483Z,1.40
2023-03-06T22:36:20.516Z,1.30
2023-03-06T22:41:22.646Z,1.30
2023-03-06T22:46:25.440Z,1.30
2023-03-06T22:51:28.684Z,1.20
2023-03-06T22:56:30.902Z,1.20
2023-03-06T23:01:34.361Z,1.20
2023-03-06T23:06:38.175Z,1.20
2023-03-06T23:11:39.984Z,1.20
2023-03-06T23:17:00.349Z,1.20
2023-03-06T23:22:20.748Z,1.20
2023-03-06T23:27:41.073Z,1.20
2023-03-06T23:32:45.486Z,1.10
2023-03-06T23:37:47.669Z,1.10
2023-03-06T23:42:50.154Z,1.10
2023-03-06T23:47:51.926Z,1.10
2023-03-06T23:52:55.096Z,1.10
2023-03-06T23:57:56.875Z,1.10
